createdAt,value
2022-09-25T00:01:19.899Z,11.43
2022-09-25T00:03:47.401Z,12.13
2022-09-25T00:06:19.132Z,11.27
2022-09-25T00:08:49.599Z,11.13
2022-09-25T00:11:22.818Z,11.57
2022-09-25T00:13:51.126Z,11.60
2022-09-25T00:16:26.437Z,11.63
2022-09-25T00:19:12.313Z,11.23
2022-09-25T00:21:39.396Z,11.10
2022-09-25T00:24:09.701Z,11.63
2022-09-25T00:26:41.187Z,10.95
2022-09-25T00:29:13.657Z,9.77
2022-09-25T00:31:40.642Z,10.05
2022-09-25T00:34:07.637Z,8.73
2022-09-25T00:36:37.141Z,8.68
2022-09-25T00:39:04.575Z,9.40
2022-09-25T00:41:32.215Z,8.50
2022-09-25T00:44:02.805Z,8.88
2022-09-25T00:46:40.723Z,8.55
2022-09-25T00:49:15.219Z,8.43
2022-09-25T00:52:05.096Z,8.63
2022-09-25T00:54:38.465Z,8.20
2022-09-25T00:57:10.781Z,8.57
2022-09-25T01:02:14.324Z,8.30
2022-09-25T01:04:46.203Z,8.45
2022-09-25T01:07:16.833Z,8.18
2022-09-25T01:09:45.583Z,8.00
2022-09-25T01:12:12.908Z,8.63
2022-09-25T01:14:40.362Z,8.13
2022-09-25T01:17:14.159Z,8.85
2022-09-25T01:20:23.640Z,9.30
2022-09-25T01:23:23.116Z,8.30
2022-09-25T01:26:04.902Z,8.80
2022-09-25T01:28:53.627Z,8.63
2022-09-25T01:31:35.747Z,8.63
2022-09-25T01:34:31.490Z,8.27
2022-09-25T01:37:42.127Z,9.23
2022-09-25T01:40:58.252Z,8.43
2022-09-25T01:43:57.086Z,8.38
2022-09-25T01:46:30.481Z,8.07
2022-09-25T01:48:59.046Z,8.75
2022-09-25T01:51:38.296Z,8.77
2022-09-25T01:54:23.126Z,8.77
2022-09-25T01:57:03.767Z,9.43
2022-09-25T01:59:40.266Z,8.75
2022-09-25T02:02:13.923Z,8.32
2022-09-25T02:05:07.178Z,8.45
2022-09-25T02:07:45.141Z,8.48
2022-09-25T02:10:26.636Z,8.50
2022-09-25T02:13:03.868Z,9.07
2022-09-25T02:15:37.151Z,9.50
2022-09-25T02:18:27.705Z,8.63
2022-09-25T02:21:09.919Z,9.27
2022-09-25T02:24:05.774Z,9.02
2022-09-25T02:26:44.856Z,8.43
2022-09-25T02:29:12.923Z,9.32
2022-09-25T02:31:49.968Z,9.00
2022-09-25T02:34:17.346Z,9.38
2022-09-25T02:36:44.922Z,9.05
2022-09-25T02:39:16.078Z,8.70
2022-09-25T02:42:17.172Z,9.38
2022-09-25T02:45:07.138Z,8.95
2022-09-25T02:48:28.245Z,9.38
2022-09-25T02:51:33.558Z,8.70
2022-09-25T02:54:21.419Z,9.15
2022-09-25T02:57:04.406Z,8.95
2022-09-25T02:59:45.578Z,8.85
2022-09-25T03:02:15.907Z,8.80
2022-09-25T03:04:45.062Z,9.00
2022-09-25T03:07:12.277Z,9.05
2022-09-25T03:09:46.920Z,9.32
2022-09-25T03:12:14.900Z,7.95
2022-09-25T03:14:41.966Z,8.45
2022-09-25T03:17:10.347Z,8.85
2022-09-25T03:19:38.235Z,8.55
2022-09-25T03:22:05.352Z,8.98
2022-09-25T03:24:32.337Z,8.75
2022-09-25T03:26:59.333Z,11.15
2022-09-25T03:29:29.927Z,9.98
2022-09-25T03:31:59.157Z,8.93
2022-09-25T03:34:26.175Z,10.00
2022-09-25T03:36:53.608Z,9.85
2022-09-25T03:39:20.746Z,8.68
2022-09-25T03:41:48.045Z,8.85
2022-09-25T03:44:15.602Z,8.80
2022-09-25T03:46:42.739Z,9.07
2022-09-25T03:49:10.811Z,9.52
2022-09-25T03:51:38.949Z,10.00
2022-09-25T03:54:06.362Z,9.27
2022-09-25T03:56:33.851Z,9.02
2022-09-25T03:59:01.197Z,8.63
2022-09-25T04:01:31.841Z,9.30
2022-09-25T04:04:01.466Z,9.40
2022-09-25T04:06:28.544Z,8.90
2022-09-25T04:08:55.718Z,9.15
2022-09-25T04:11:26.743Z,9.07
2022-09-25T04:13:53.795Z,8.60
2022-09-25T04:16:21.464Z,8.75
2022-09-25T04:18:53.163Z,8.43
2022-09-25T04:21:22.665Z,9.05
2022-09-25T04:24:08.607Z,7.95
2022-09-25T04:26:36.451Z,9.43
2022-09-25T04:29:03.915Z,8.95
2022-09-25T04:31:32.277Z,9.32
2022-09-25T04:33:59.448Z,9.20
2022-09-25T04:36:26.514Z,9.02
2022-09-25T04:38:53.547Z,8.88
2022-09-25T04:41:20.650Z,9.07
2022-09-25T04:43:48.151Z,9.25
2022-09-25T04:46:21.792Z,8.45
2022-09-25T04:48:49.789Z,9.27
2022-09-25T04:51:16.840Z,8.32
2022-09-25T04:53:43.874Z,8.93
2022-09-25T04:56:15.937Z,8.85
2022-09-25T04:58:50.649Z,8.25
2022-09-25T05:01:21.089Z,9.10
2022-09-25T05:03:50.518Z,8.63
2022-09-25T05:06:17.701Z,8.73
2022-09-25T05:08:44.935Z,8.80
2022-09-25T05:11:11.988Z,9.27
2022-09-25T05:13:39.092Z,8.68
2022-09-25T05:16:06.507Z,9.23
2022-09-25T05:18:33.678Z,9.70
2022-09-25T05:21:01.260Z,9.13
2022-09-25T05:23:31.275Z,9.32
2022-09-25T05:26:01.009Z,9.15
2022-09-25T05:28:32.462Z,8.52
2022-09-25T05:31:04.509Z,9.20
2022-09-25T05:36:07.244Z,9.38
2022-09-25T05:38:38.394Z,10.07
2022-09-25T05:41:08.420Z,8.93
2022-09-25T05:43:41.832Z,9.27
2022-09-25T05:46:09.994Z,9.95
2022-09-25T05:48:37.319Z,10.00
2022-09-25T05:51:04.743Z,11.00
2022-09-25T05:53:32.017Z,11.25
2022-09-25T05:56:03.821Z,10.57
2022-09-25T05:58:33.640Z,10.85
2022-09-25T06:01:05.690Z,10.10
2022-09-25T06:03:33.107Z,9.25
2022-09-25T06:06:00.840Z,9.45
2022-09-25T06:08:32.472Z,8.95
2022-09-25T06:11:02.553Z,10.57
2022-09-25T06:13:34.836Z,11.75
2022-09-25T06:16:02.962Z,11.73
2022-09-25T06:18:30.039Z,11.80
2022-09-25T06:21:07.076Z,14.85
2022-09-25T06:23:34.119Z,19.02
2022-09-25T06:26:07.808Z,20.00
2022-09-25T06:28:35.629Z,16.55
2022-09-25T06:31:06.254Z,15.00
2022-09-25T06:33:33.661Z,15.05
2022-09-25T06:36:06.023Z,14.38
2022-09-25T06:38:36.040Z,14.13
2022-09-25T06:41:03.116Z,13.68
2022-09-25T06:43:30.375Z,13.68
2022-09-25T06:46:02.286Z,15.18
2022-09-25T06:48:32.259Z,14.27
2022-09-25T06:51:03.063Z,15.30
2022-09-25T06:53:30.116Z,16.75
2022-09-25T06:55:59.639Z,13.93
2022-09-25T06:58:27.358Z,15.52
2022-09-25T07:00:56.236Z,15.93
2022-09-25T07:03:43.033Z,19.63
2022-09-25T07:06:22.378Z,15.48
2022-09-25T07:08:51.308Z,15.65
2022-09-25T07:11:21.770Z,15.48
2022-09-25T07:13:51.292Z,15.32
2022-09-25T07:16:20.178Z,17.67
2022-09-25T07:18:47.720Z,18.88
2022-09-25T07:21:18.250Z,15.85
2022-09-25T07:23:51.305Z,14.73
2022-09-25T07:26:27.859Z,15.05
2022-09-25T07:28:58.609Z,15.18
2022-09-25T07:31:31.896Z,15.88
2022-09-25T07:34:03.068Z,15.48
2022-09-25T07:36:30.135Z,15.77
2022-09-25T07:38:59.740Z,17.83
2022-09-25T07:41:26.795Z,18.35
2022-09-25T07:46:46.421Z,19.83
2022-09-25T07:49:13.949Z,16.58
2022-09-25T07:51:41.071Z,17.83
2022-09-25T07:54:10.955Z,19.08
2022-09-25T07:56:40.622Z,18.27
2022-09-25T07:59:07.590Z,18.95
2022-09-25T08:01:37.234Z,19.75
2022-09-25T08:04:08.173Z,19.42
2022-09-25T08:06:36.096Z,18.60
2022-09-25T08:09:08.103Z,19.42
2022-09-25T08:11:37.511Z,19.13
2022-09-25T08:14:04.616Z,18.67
2022-09-25T08:16:31.653Z,18.77
2022-09-25T08:18:58.674Z,18.23
2022-09-25T08:21:25.651Z,18.52
2022-09-25T08:23:54.752Z,17.50
2022-09-25T08:26:23.130Z,18.27
2022-09-25T08:28:51.823Z,18.42
2022-09-25T08:31:18.960Z,16.60
2022-09-25T08:33:47.543Z,17.40
2022-09-25T08:36:16.244Z,18.02
2022-09-25T08:38:43.675Z,17.50
2022-09-25T08:41:28.061Z,17.05
2022-09-25T08:44:06.446Z,19.35
2022-09-25T08:47:04.836Z,19.33
2022-09-25T08:49:41.595Z,17.67
2022-09-25T08:52:16.517Z,19.05
2022-09-25T08:54:46.143Z,18.33
2022-09-25T08:57:27.746Z,18.67
2022-09-25T09:00:02.581Z,19.63
2022-09-25T09:02:55.381Z,20.35
2022-09-25T09:05:32.054Z,17.80
2022-09-25T09:08:15.704Z,18.55
2022-09-25T09:10:53.314Z,19.20
2022-09-25T09:13:44.857Z,20.02
2022-09-25T09:17:03.123Z,19.52
2022-09-25T09:19:30.312Z,19.10
2022-09-25T09:22:12.395Z,18.17
2022-09-25T09:27:58.476Z,16.73
2022-09-25T09:30:45.087Z,16.48
2022-09-25T09:33:28.365Z,16.08
2022-09-25T09:36:10.450Z,17.40
2022-09-25T09:39:05.893Z,15.85
2022-09-25T09:41:42.524Z,15.65
2022-09-25T09:44:24.069Z,16.27
2022-09-25T09:47:27.286Z,15.32
2022-09-25T09:50:15.034Z,15.60
2022-09-25T09:52:44.064Z,16.90
2022-09-25T09:55:48.110Z,15.38
2022-09-25T09:58:44.208Z,15.68
2022-09-25T10:01:39.662Z,16.38
2022-09-25T10:04:29.216Z,16.65
2022-09-25T10:07:14.929Z,14.77
2022-09-25T10:09:44.199Z,15.27
2022-09-25T10:12:24.129Z,15.63
2022-09-25T10:14:51.836Z,15.10
2022-09-25T10:17:20.118Z,15.02
2022-09-25T10:19:59.756Z,15.20
2022-09-25T10:22:42.630Z,15.73
2022-09-25T10:25:12.135Z,18.02
2022-09-25T10:27:48.896Z,16.60
2022-09-25T10:30:20.308Z,16.33
2022-09-25T10:33:03.491Z,16.50
2022-09-25T10:35:39.660Z,15.18
2022-09-25T10:38:20.137Z,15.98
2022-09-25T10:41:13.265Z,16.25
2022-09-25T10:44:21.835Z,15.85
2022-09-25T10:47:07.195Z,16.05
2022-09-25T10:50:06.641Z,17.38
2022-09-25T10:52:59.119Z,16.58
2022-09-25T10:55:41.859Z,16.60
2022-09-25T10:58:11.934Z,15.70
2022-09-25T11:00:51.107Z,16.02
2022-09-25T11:03:32.266Z,14.45
2022-09-25T11:06:17.619Z,16.33
2022-09-25T11:08:44.898Z,14.93
2022-09-25T11:11:14.188Z,15.73
2022-09-25T11:13:55.929Z,15.75
2022-09-25T11:16:46.680Z,17.48
2022-09-25T11:19:31.464Z,16.50
2022-09-25T11:22:14.097Z,18.80
2022-09-25T11:25:22.149Z,17.80
2022-09-25T11:28:13.650Z,15.30
2022-09-25T11:30:51.603Z,16.38
2022-09-25T11:33:29.758Z,15.88
2022-09-25T11:36:17.386Z,15.25
2022-09-25T11:39:11.930Z,15.45
2022-09-25T11:41:46.113Z,14.15
2022-09-25T11:44:54.352Z,13.13
2022-09-25T11:47:46.155Z,14.70
2022-09-25T11:50:18.582Z,13.20
2022-09-25T11:53:24.325Z,13.93
2022-09-25T11:56:35.264Z,12.75
2022-09-25T11:59:41.886Z,12.00
2022-09-25T12:02:56.800Z,11.32
2022-09-25T12:05:49.291Z,10.55
2022-09-25T12:08:49.050Z,9.55
2022-09-25T12:11:55.752Z,9.82
2022-09-25T12:14:37.896Z,10.05
2022-09-25T12:17:47.505Z,10.30
2022-09-25T12:20:32.573Z,9.98
2022-09-25T12:23:36.076Z,8.43
2022-09-25T12:26:26.239Z,8.43
2022-09-25T12:28:58.946Z,9.88
2022-09-25T12:32:04.508Z,8.55
2022-09-25T12:35:11.075Z,8.35
2022-09-25T12:38:21.618Z,9.45
2022-09-25T12:41:30.039Z,9.65
2022-09-25T12:44:29.589Z,8.18
2022-09-25T12:47:15.460Z,8.15
2022-09-25T12:50:03.910Z,7.53
2022-09-25T12:52:42.573Z,7.65
2022-09-25T12:55:31.682Z,7.47
2022-09-25T12:58:48.408Z,7.22
2022-09-25T13:01:26.071Z,7.97
2022-09-25T13:04:37.786Z,8.05
2022-09-25T13:07:23.629Z,7.40
2022-09-25T13:09:50.881Z,6.88
2022-09-25T13:12:37.820Z,7.30
2022-09-25T13:15:26.333Z,7.28
2022-09-25T13:17:53.582Z,6.80
2022-09-25T13:20:26.702Z,6.35
2022-09-25T13:23:26.705Z,7.15
2022-09-25T13:26:22.682Z,6.90
2022-09-25T13:28:50.584Z,6.20
2022-09-25T13:31:33.604Z,6.40
2022-09-25T13:34:00.476Z,7.22
2022-09-25T13:36:45.960Z,6.25
2022-09-25T13:39:54.513Z,6.78
2022-09-25T13:42:23.046Z,6.78
2022-09-25T13:45:26.149Z,6.32
2022-09-25T13:48:31.606Z,5.85
2022-09-25T13:51:20.110Z,6.10
2022-09-25T13:54:09.479Z,6.32
2022-09-25T13:56:42.524Z,5.90
2022-09-25T13:59:13.897Z,5.90
2022-09-25T14:01:56.916Z,5.78
2022-09-25T14:04:36.446Z,7.70
2022-09-25T14:07:23.365Z,7.82
2022-09-25T14:09:56.239Z,7.45
2022-09-25T14:12:43.184Z,6.47
2022-09-25T14:15:27.021Z,6.57
2022-09-25T14:17:57.557Z,6.13
2022-09-25T14:20:35.467Z,6.38
2022-09-25T14:23:40.181Z,6.90
2022-09-25T14:26:22.776Z,6.30
2022-09-25T14:28:52.517Z,6.68
2022-09-25T14:31:37.584Z,7.07
2022-09-25T14:34:37.724Z,6.78
2022-09-25T14:37:30.487Z,6.95
2022-09-25T14:40:22.391Z,7.32
2022-09-25T14:43:29.805Z,7.50
2022-09-25T14:46:02.075Z,7.05
2022-09-25T14:48:45.129Z,7.13
2022-09-25T14:51:25.514Z,7.25
2022-09-25T14:54:01.602Z,6.60
2022-09-25T14:56:34.178Z,5.90
2022-09-25T14:59:11.497Z,5.80
2022-09-25T15:01:51.080Z,6.45
2022-09-25T15:04:34.666Z,5.80
2022-09-25T15:07:14.377Z,6.55
2022-09-25T15:09:48.402Z,5.88
2022-09-25T15:12:29.767Z,5.53
2022-09-25T15:15:11.815Z,6.00
2022-09-25T15:20:24.309Z,5.72
2022-09-25T15:23:08.544Z,6.85
2022-09-25T15:26:05.187Z,6.43
2022-09-25T15:28:40.136Z,5.55
2022-09-25T15:31:08.339Z,6.13
2022-09-25T15:33:38.966Z,5.20
2022-09-25T15:36:23.947Z,5.53
2022-09-25T15:39:16.389Z,5.53
2022-09-25T15:41:44.771Z,5.90
2022-09-25T15:44:15.700Z,6.70
2022-09-25T15:46:53.738Z,6.60
2022-09-25T15:49:43.304Z,5.68
2022-09-25T15:52:22.178Z,5.75
2022-09-25T15:54:49.260Z,5.60
2022-09-25T15:57:27.067Z,6.10
2022-09-25T16:00:13.455Z,5.65
2022-09-25T16:03:09.479Z,5.60
2022-09-25T16:05:44.005Z,5.65
2022-09-25T16:08:32.118Z,6.25
2022-09-25T16:11:26.851Z,5.82
2022-09-25T16:14:31.296Z,5.00
2022-09-25T16:17:00.327Z,5.82
2022-09-25T16:19:27.782Z,5.57
2022-09-25T16:21:55.281Z,5.60
2022-09-25T16:24:26.760Z,5.07
2022-09-25T16:27:07.598Z,5.70
2022-09-25T16:29:39.305Z,5.47
2022-09-25T16:32:15.150Z,5.35
2022-09-25T16:34:58.459Z,6.47
2022-09-25T16:37:32.274Z,8.68
2022-09-25T16:40:17.931Z,9.73
2022-09-25T16:42:47.540Z,12.18
2022-09-25T16:45:27.911Z,10.70
2022-09-25T16:47:58.479Z,10.98
2022-09-25T16:50:39.530Z,9.90
2022-09-25T16:53:07.073Z,9.82
2022-09-25T16:55:38.219Z,8.45
2022-09-25T16:58:10.309Z,8.43
2022-09-25T17:00:37.572Z,10.43
2022-09-25T17:03:04.743Z,12.18
2022-09-25T17:05:32.842Z,12.90
2022-09-25T17:08:20.672Z,13.73
2022-09-25T17:10:51.368Z,12.77
2022-09-25T17:13:26.704Z,14.00
2022-09-25T17:15:55.825Z,12.73
2022-09-25T17:18:23.040Z,13.68
2022-09-25T17:20:54.701Z,14.27
2022-09-25T17:23:24.555Z,13.50
2022-09-25T17:26:00.860Z,14.77
2022-09-25T17:28:29.473Z,14.52
2022-09-25T17:30:56.571Z,15.57
2022-09-25T17:33:24.079Z,15.13
2022-09-25T17:36:03.462Z,14.13
2022-09-25T17:38:32.430Z,15.40
2022-09-25T17:41:06.240Z,14.95
2022-09-25T17:43:33.439Z,12.93
2022-09-25T17:46:01.385Z,13.35
2022-09-25T17:48:33.753Z,14.60
2022-09-25T17:51:15.978Z,15.40
2022-09-25T17:53:44.439Z,18.58
2022-09-25T17:56:15.235Z,17.35
2022-09-25T17:58:44.570Z,18.17
2022-09-25T18:01:23.818Z,18.67
2022-09-25T18:04:23.989Z,18.40
2022-09-25T18:06:52.146Z,17.88
2022-09-25T18:09:19.511Z,18.15
2022-09-25T18:11:49.007Z,17.15
2022-09-25T18:14:17.364Z,17.38
2022-09-25T18:16:45.541Z,18.73
2022-09-25T18:19:39.363Z,21.08
2022-09-25T18:22:19.565Z,20.50
2022-09-25T18:24:50.608Z,20.55
2022-09-25T18:27:17.631Z,19.98
2022-09-25T18:29:45.825Z,20.33
2022-09-25T18:32:13.643Z,20.48
2022-09-25T18:34:49.786Z,20.42
2022-09-25T18:37:16.891Z,19.77
2022-09-25T18:39:48.124Z,19.33
2022-09-25T18:42:15.290Z,19.83
2022-09-25T18:44:43.136Z,19.58
2022-09-25T18:47:11.509Z,20.13
2022-09-25T18:49:43.686Z,19.35
2022-09-25T18:54:42.010Z,18.85
2022-09-25T18:57:11.043Z,20.15
2022-09-25T18:59:39.205Z,19.45
2022-09-25T19:02:10.312Z,21.23
2022-09-25T19:04:39.834Z,19.50
2022-09-25T19:07:09.472Z,18.77
2022-09-25T19:09:38.930Z,18.17
2022-09-25T19:12:07.297Z,19.83
2022-09-25T19:14:35.731Z,17.00
2022-09-25T19:17:02.823Z,18.77
2022-09-25T19:19:30.337Z,17.70
2022-09-25T19:21:57.330Z,18.08
2022-09-25T19:24:24.502Z,17.23
2022-09-25T19:26:51.532Z,18.58
2022-09-25T19:29:18.686Z,18.35
2022-09-25T19:31:46.335Z,18.65
2022-09-25T19:34:13.341Z,15.68
2022-09-25T19:36:40.369Z,17.35
2022-09-25T19:39:07.449Z,16.88
2022-09-25T19:41:38.026Z,16.73
2022-09-25T19:44:13.433Z,16.48
2022-09-25T19:46:42.804Z,16.25
2022-09-25T19:49:11.268Z,16.77
2022-09-25T19:51:38.756Z,18.27
2022-09-25T19:54:07.836Z,17.00
2022-09-25T19:56:40.850Z,16.73
2022-09-25T19:59:13.557Z,17.63
2022-09-25T20:01:43.115Z,17.90
2022-09-25T20:04:17.461Z,18.17
2022-09-25T20:06:46.948Z,16.42
2022-09-25T20:09:14.529Z,16.83
2022-09-25T20:11:41.599Z,16.50
2022-09-25T20:14:08.779Z,15.15
2022-09-25T20:16:40.789Z,16.45
2022-09-25T20:19:08.062Z,18.35
2022-09-25T20:21:38.075Z,16.88
2022-09-25T20:24:08.134Z,15.52
2022-09-25T20:26:38.020Z,15.55
2022-09-25T20:29:17.150Z,16.23
2022-09-25T20:31:46.009Z,15.48
2022-09-25T20:34:19.755Z,16.77
2022-09-25T20:36:47.229Z,16.10
2022-09-25T20:39:20.495Z,15.70
2022-09-25T20:41:51.865Z,16.40
2022-09-25T20:44:18.856Z,17.65
2022-09-25T20:46:45.973Z,17.55
2022-09-25T20:49:16.418Z,16.88
2022-09-25T20:51:43.853Z,15.25
2022-09-25T20:54:11.250Z,21.25
2022-09-25T20:56:43.860Z,32.85
2022-09-25T20:59:12.148Z,36.17
2022-09-25T21:01:41.028Z,44.22
2022-09-25T21:04:09.994Z,45.05
2022-09-25T21:06:44.076Z,46.80
2022-09-25T21:09:24.058Z,37.33
2022-09-25T21:11:52.413Z,45.33
2022-09-25T21:14:28.894Z,32.92
2022-09-25T21:16:56.404Z,30.85
2022-09-25T21:19:24.071Z,30.75
2022-09-25T21:21:51.355Z,29.42
2022-09-25T21:24:22.558Z,27.70
2022-09-25T21:26:50.060Z,25.33
2022-09-25T21:29:18.389Z,24.90
2022-09-25T21:31:50.255Z,24.88
2022-09-25T21:34:21.447Z,20.73
2022-09-25T21:36:49.235Z,23.98
2022-09-25T21:39:16.636Z,23.42
2022-09-25T21:41:43.755Z,22.25
2022-09-25T21:44:17.108Z,21.00
2022-09-25T21:46:44.554Z,20.98
2022-09-25T21:49:21.663Z,21.38
2022-09-25T21:51:51.690Z,20.95
2022-09-25T21:54:18.990Z,21.42
2022-09-25T21:56:47.791Z,21.02
2022-09-25T21:59:15.619Z,23.80
2022-09-25T22:01:42.999Z,24.00
2022-09-25T22:04:13.707Z,25.67
2022-09-25T22:06:47.190Z,23.00
2022-09-25T22:09:30.367Z,26.77
2022-09-25T22:11:57.492Z,26.05
2022-09-25T22:14:24.519Z,27.35
2022-09-25T22:16:53.005Z,21.88
2022-09-25T22:19:29.520Z,19.83
2022-09-25T22:21:58.881Z,24.33
2022-09-25T22:24:27.247Z,23.52
2022-09-25T22:26:56.574Z,24.20
2022-09-25T22:29:26.098Z,20.92
2022-09-25T22:31:53.550Z,23.10
2022-09-25T22:34:27.501Z,25.02
2022-09-25T22:36:59.489Z,25.75
2022-09-25T22:39:29.117Z,26.83
2022-09-25T22:41:57.172Z,25.33
2022-09-25T22:44:27.025Z,24.13
2022-09-25T22:46:54.135Z,23.33
2022-09-25T22:49:21.268Z,23.38
2022-09-25T22:51:48.397Z,23.38
2022-09-25T22:54:15.892Z,22.48
2022-09-25T22:56:44.105Z,24.02
2022-09-25T22:59:18.311Z,23.42
2022-09-25T23:01:49.209Z,22.88
2022-09-25T23:04:23.391Z,22.73
2022-09-25T23:06:51.195Z,21.67
2022-09-25T23:09:26.957Z,22.20
2022-09-25T23:11:57.905Z,21.25
2022-09-25T23:14:31.504Z,20.65
2022-09-25T23:16:59.989Z,20.52
2022-09-25T23:19:27.398Z,20.73
2022-09-25T23:21:55.149Z,20.70
2022-09-25T23:24:25.139Z,20.27
2022-09-25T23:26:55.383Z,19.75
2022-09-25T23:29:22.969Z,18.90
2022-09-25T23:31:51.049Z,19.30
2022-09-25T23:34:19.066Z,20.00
2022-09-25T23:36:46.421Z,19.17
2022-09-25T23:39:19.778Z,19.25
2022-09-25T23:41:47.402Z,19.17
2022-09-25T23:44:14.434Z,18.65
2022-09-25T23:46:43.554Z,19.27
2022-09-25T23:49:11.454Z,18.88
2022-09-25T23:51:39.164Z,18.52
2022-09-25T23:54:09.601Z,18.40
2022-09-25T23:56:36.817Z,17.55
2022-09-25T23:59:05.266Z,18.35
